首页
METAR-TAF:

METAR-TAF

机场 :

諾里奇, 英格兰

纬度: 52-38N, 经度: 001-18E, 海拔: 14米

当前天气观测

该预报发布于13分钟前的20:50 UTC
风速6节,风向西北,在西之间变化
温度 11°C
湿度 76%
气压 999 hPa
能见度10公里或以上

METAR: EGSH 062050Z AUTO 32006KT 280V360 9999 FEW020/// SCT039/// BKN048/// 11/07 Q0999

时间: 22:03 (21:03 UTC)

预报

该预报发布于1小时和5分钟前的19:58 UTC
预报有效从06日的 21点(UTC)到 07日的 06点(UTC)
风速9节,风向西转西北
能见度10公里或以上
散云层高于3000英尺
几率 30% :
短暂存在
从 06日的 21点(UTC)到 06日的 24点(UTC)
能見度: 7000
阵雨
几率 30% :
短暂存在
从 07日的 03点(UTC)到 07日的 06点(UTC)
多云层高于900英尺

TAF: EGSH 061958Z 0621/0706 30009KT 9999 SCT030 PROB30 TEMPO 0621/0624 7000 SHRA PROB30 TEMPO 0703/0706 BKN009

超过4000个机场的气象观测和天气预报(METAR&TAF报告)。

可查询的气象台以黄色和红色小点在地图上表示。

将鼠标移到小点上方,可查看气象台名称。

然后点击查看天气观测和预报。

如需切换地图:点击带黑十字的绿色按钮放大地图;点击带横线的绿色按钮缩小地图;或者点击绿色箭头查看邻近地区的地图。


METAR-TAF: